In Rescue
 
Open Full Screen Window  High Contrast Mode
Wind Gusting 00 knots
07
February 25, 2021 4:16 PM CST
Weather Information
Wind Direction
  230 °
Wind Speed
  07 kt (8 mph)
Wind Gust
  00 kt (0 mph)
Altimeter
30.19 in
Visibility
10 SM
Temperature
03° C
37° F
Dewpoint
-06° C
21° F
Humidity
52%
1hr Rain Fall
00.00 in.
24hr Rain Fall
00.00 in.
Sky Condition
Clear
VFR

METAR KANE 252216Z AUTO 23007KT 10SM CLR 03/M06 A3019 RMK AO2

FAA Disclaimer: The data displayed is for advisory purposes only and is not to be used for flight planning or operations.